Time;durP1;ratioP1;P1;durP2;ratioP2;P2;SDS_P1;SDS_P2;PMS_P1;PMS_P2;Temp;Humidity;BMP_temperature;BMP_pressure;BME280_temperature;BME280_humidity;BME280_pressure;Samples;Min_cycle;Max_cycle;Signal;HPM_P1;HPM_P2
2021/04/25 00:00:39;;;;;;;47.03;32.20;;;4.90;90.70;;;;;;2081816;28;20029;-71
2021/04/25 00:01:39;;;;;;;44.83;31.05;;;4.90;90.60;;;;;;2085895;28;20047;-73
2021/04/25 00:02:40;;;;;;;46.17;30.67;;;4.90;90.60;;;;;;2087707;28;20609;-70
2021/04/25 00:03:42;;;;;;;42.80;28.05;;;4.90;90.70;;;;;;2085644;28;20021;-70
2021/04/25 00:04:42;;;;;;;40.05;28.13;;;4.90;90.70;;;;;;2086722;28;20448;-69
2021/04/25 00:05:43;;;;;;;40.05;27.13;;;4.90;90.60;;;;;;2085245;28;20104;-71
2021/04/25 00:06:44;;;;;;;36.13;25.73;;;4.80;90.60;;;;;;2089973;28;20053;-70
2021/04/25 00:07:46;;;;;;;37.50;25.02;;;4.80;90.60;;;;;;2089005;28;20083;-71
2021/04/25 00:08:47;;;;;;;35.15;23.95;;;4.80;90.80;;;;;;2081228;28;20029;-70
2021/04/25 00:09:47;;;;;;;37.90;24.08;;;4.80;91.00;;;;;;2089526;28;20017;-68
2021/04/25 00:10:48;;;;;;;32.90;23.30;;;4.80;91.20;;;;;;2081123;28;20829;-69
2021/04/25 00:11:49;;;;;;;35.22;23.10;;;4.80;91.30;;;;;;2081623;28;20444;-69
2021/04/25 00:12:50;;;;;;;31.60;20.45;;;4.80;91.50;;;;;;2089307;28;20028;-71
2021/04/25 00:13:50;;;;;;;31.77;21.13;;;4.80;91.80;;;;;;2090439;28;20060;-70
2021/04/25 00:14:51;;;;;;;31.02;21.58;;;4.80;91.90;;;;;;2090427;28;20114;-68
2021/04/25 00:15:52;;;;;;;30.98;21.30;;;4.80;92.00;;;;;;2084531;28;20492;-71
2021/04/25 00:16:53;;;;;;;29.98;21.33;;;4.80;92.00;;;;;;2077786;28;20029;-71
2021/04/25 00:17:54;;;;;;;30.33;21.15;;;4.80;92.30;;;;;;2077709;28;20493;-67
2021/04/25 00:18:58;;;;;;;29.08;20.55;;;4.80;92.30;;;;;;2080734;28;20372;-71
2021/04/25 00:19:59;;;;;;;31.88;21.60;;;4.80;92.40;;;;;;2094370;28;20059;-71
2021/04/25 00:20:59;;;;;;;30.77;21.90;;;4.70;92.60;;;;;;2088846;28;20025;-68
2021/04/25 00:22:00;;;;;;;32.33;21.35;;;4.70;92.70;;;;;;2086372;28;20025;-71
2021/04/25 00:23:02;;;;;;;31.58;21.95;;;4.70;92.80;;;;;;2089067;28;20045;-68
2021/04/25 00:24:03;;;;;;;34.33;21.65;;;4.70;92.90;;;;;;2088952;28;20025;-68
2021/04/25 00:25:04;;;;;;;33.00;22.02;;;4.60;92.90;;;;;;2088492;28;20035;-71
2021/04/25 00:26:07;;;;;;;34.08;21.85;;;4.60;92.90;;;;;;2088659;28;20135;-71
2021/04/25 00:27:08;;;;;;;32.42;21.80;;;4.60;93.00;;;;;;2089546;28;20033;-71
2021/04/25 00:28:08;;;;;;;32.10;21.63;;;4.60;93.10;;;;;;2088774;28;20036;-69
2021/04/25 00:29:10;;;;;;;33.08;22.85;;;4.60;93.20;;;;;;2088780;28;20025;-69
2021/04/25 00:30:15;;;;;;;32.38;21.77;;;4.50;93.20;;;;;;2089339;28;20032;-71
2021/04/25 00:31:16;;;;;;;33.15;22.05;;;4.50;93.30;;;;;;2089505;28;20047;-69
2021/04/25 00:32:17;;;;;;;33.53;21.42;;;4.50;93.30;;;;;;2089418;28;20123;-72
2021/04/25 00:33:18;;;;;;;31.75;20.65;;;4.50;93.20;;;;;;2090019;28;20032;-72
2021/04/25 00:34:19;;;;;;;30.60;20.48;;;4.50;93.00;;;;;;2088632;28;20021;-70
2021/04/25 00:35:20;;;;;;;31.63;20.27;;;4.40;92.80;;;;;;2080540;28;20094;-69
2021/04/25 00:36:21;;;;;;;28.35;19.95;;;4.40;92.90;;;;;;2072181;28;20018;-70
2021/04/25 00:37:22;;;;;;;27.05;18.65;;;4.40;92.90;;;;;;2089024;28;20029;-71
2021/04/25 00:38:22;;;;;;;29.45;19.52;;;4.40;92.80;;;;;;2089450;28;20049;-69
2021/04/25 00:39:23;;;;;;;27.40;19.33;;;4.40;92.60;;;;;;2089645;28;20029;-73
2021/04/25 00:40:24;;;;;;;28.90;18.63;;;4.40;92.50;;;;;;2089439;28;20029;-70
2021/04/25 00:41:24;;;;;;;29.42;19.40;;;4.40;92.40;;;;;;2089023;28;20048;-69
2021/04/25 00:42:28;;;;;;;31.63;19.92;;;4.40;92.40;;;;;;2080984;28;20025;-71
2021/04/25 00:43:30;;;;;;;30.27;20.15;;;4.40;92.60;;;;;;2073392;28;20061;-71
2021/04/25 00:44:31;;;;;;;32.55;21.48;;;4.40;93.00;;;;;;2081889;28;20078;-72
2021/04/25 00:45:32;;;;;;;31.85;20.60;;;4.40;93.50;;;;;;2081469;28;20021;-73
2021/04/25 00:46:33;;;;;;;30.20;20.48;;;4.40;93.60;;;;;;2080836;28;20044;-72
2021/04/25 00:47:34;;;;;;;32.95;20.65;;;4.40;93.60;;;;;;2082362;28;20037;-70
2021/04/25 00:48:35;;;;;;;31.90;20.65;;;4.40;93.50;;;;;;2089491;28;20021;-70
2021/04/25 00:49:36;;;;;;;31.20;20.65;;;4.40;93.80;;;;;;2081575;28;20029;-69
2021/04/25 00:50:37;;;;;;;30.33;20.17;;;4.40;93.50;;;;;;2073481;28;20524;-70
2021/04/25 00:51:37;;;;;;;30.73;20.23;;;4.40;93.60;;;;;;2082112;28;20045;-71
2021/04/25 00:52:43;;;;;;;31.70;21.13;;;4.30;93.60;;;;;;2091358;28;20065;-72
2021/04/25 00:53:44;;;;;;;32.20;20.52;;;4.30;93.70;;;;;;2083565;28;20034;-71
2021/04/25 00:54:45;;;;;;;30.95;20.13;;;4.30;93.70;;;;;;2083071;28;20079;-73
2021/04/25 00:55:46;;;;;;;29.30;20.17;;;4.30;93.70;;;;;;2080706;28;20038;-70
2021/04/25 00:56:47;;;;;;;29.73;19.83;;;4.30;93.60;;;;;;2089620;28;20052;-72
2021/04/25 00:57:48;;;;;;;27.13;18.90;;;4.20;93.50;;;;;;2093007;28;20039;-71
2021/04/25 00:58:49;;;;;;;30.00;19.38;;;4.20;93.50;;;;;;2087799;28;20066;-71
2021/04/25 00:59:53;;;;;;;28.67;18.70;;;4.20;93.30;;;;;;2085062;28;20029;-70
2021/04/25 01:00:54;;;;;;;25.67;18.23;;;4.20;93.20;;;;;;2089574;28;20111;-71
2021/04/25 01:01:55;;;;;;;26.63;17.92;;;4.20;93.00;;;;;;2081761;28;20108;-69
2021/04/25 01:02:56;;;;;;;24.77;17.77;;;4.10;92.80;;;;;;2085785;28;20043;-70
2021/04/25 01:03:57;;;;;;;23.42;16.88;;;4.10;92.60;;;;;;2089227;28;20139;-71
2021/04/25 01:04:58;;;;;;;24.85;16.10;;;4.10;92.50;;;;;;2089707;28;20024;-73
2021/04/25 01:05:59;;;;;;;23.55;16.73;;;4.10;92.40;;;;;;2089525;28;20024;-72
2021/04/25 01:07:01;;;;;;;22.88;16.00;;;4.10;92.30;;;;;;2086233;28;20765;-72
2021/04/25 01:08:02;;;;;;;26.75;16.90;;;4.10;92.10;;;;;;2082485;28;20021;-71
2021/04/25 01:09:04;;;;;;;24.42;16.55;;;4.10;91.80;;;;;;2080944;28;20028;-70
2021/04/25 01:10:07;;;;;;;27.17;17.65;;;4.10;91.70;;;;;;2084720;28;20579;-69
2021/04/25 01:11:09;;;;;;;26.60;17.42;;;4.10;91.50;;;;;;2086635;28;20135;-72
2021/04/25 01:12:09;;;;;;;26.42;16.83;;;4.10;91.40;;;;;;2082149;28;20092;-72
2021/04/25 01:13:10;;;;;;;25.45;16.77;;;4.10;91.40;;;;;;2090088;28;20039;-72
2021/04/25 01:14:11;;;;;;;26.98;17.58;;;4.10;91.40;;;;;;2081752;28;20014;-72
2021/04/25 01:15:14;;;;;;;26.95;17.80;;;4.10;91.30;;;;;;2074288;28;20100;-72
2021/04/25 01:16:17;;;;;;;28.25;17.38;;;4.10;91.30;;;;;;2074698;28;20082;-71
2021/04/25 01:17:17;;;;;;;26.90;17.15;;;4.10;91.30;;;;;;2082407;28;20108;-72
2021/04/25 01:18:18;;;;;;;25.23;17.42;;;4.10;91.30;;;;;;2082527;28;20119;-73
2021/04/25 01:19:19;;;;;;;29.30;18.90;;;4.10;91.30;;;;;;2088986;28;20020;-73
2021/04/25 01:20:22;;;;;;;27.58;19.63;;;4.10;91.20;;;;;;2090246;28;20063;-71
2021/04/25 01:21:22;;;;;;;30.85;19.75;;;4.10;91.00;;;;;;2089557;28;20074;-71
2021/04/25 01:22:23;;;;;;;33.70;20.65;;;4.10;90.90;;;;;;2088879;28;20087;-71
2021/04/25 01:23:23;;;;;;;32.05;20.88;;;4.10;90.90;;;;;;2088328;28;20697;-72
2021/04/25 01:24:24;;;;;;;34.55;20.65;;;4.20;90.80;;;;;;2088356;28;20024;-70
2021/04/25 01:25:27;;;;;;;29.63;17.73;;;4.20;90.20;;;;;;2086856;28;20051;-69
2021/04/25 01:26:28;;;;;;;25.92;16.63;;;4.20;89.30;;;;;;2087805;28;20033;-70
2021/04/25 01:27:29;;;;;;;24.05;15.55;;;4.30;88.10;;;;;;2079174;28;20087;-69
2021/04/25 01:28:30;;;;;;;24.75;16.08;;;4.40;86.90;;;;;;2072127;28;20022;-70
2021/04/25 01:29:30;;;;;;;26.10;16.13;;;4.60;86.20;;;;;;2080313;28;20057;-71
2021/04/25 01:30:33;;;;;;;24.73;15.43;;;4.60;85.80;;;;;;2088609;28;20104;-71
2021/04/25 01:31:34;;;;;;;24.40;15.27;;;4.60;85.50;;;;;;2088586;28;20047;-70
2021/04/25 01:32:35;;;;;;;25.08;15.60;;;4.70;85.50;;;;;;2088438;28;20071;-71
2021/04/25 01:33:36;;;;;;;23.48;15.05;;;4.70;85.40;;;;;;2080489;28;20113;-69
2021/04/25 01:34:37;;;;;;;23.30;15.18;;;4.60;85.40;;;;;;2072129;28;20500;-70
2021/04/25 01:35:38;;;;;;;23.30;15.30;;;4.70;85.50;;;;;;2072072;28;20034;-71
2021/04/25 01:36:39;;;;;;;23.48;15.02;;;4.60;85.80;;;;;;2071694;28;20030;-70
2021/04/25 01:37:41;;;;;;;22.60;14.68;;;4.60;85.70;;;;;;2080183;28;20087;-68
2021/04/25 01:38:41;;;;;;;24.08;14.90;;;4.60;85.60;;;;;;2081300;28;20017;-69
2021/04/25 01:39:42;;;;;;;22.17;14.13;;;4.60;85.20;;;;;;2088970;28;20426;-70
2021/04/25 01:40:43;;;;;;;20.73;14.35;;;4.70;85.20;;;;;;2080339;28;20104;-69
2021/04/25 01:41:44;;;;;;;22.60;14.43;;;4.70;85.00;;;;;;2080150;28;20128;-71
2021/04/25 01:42:45;;;;;;;19.48;13.70;;;4.70;85.10;;;;;;2081557;28;20388;-71
2021/04/25 01:43:47;;;;;;;21.25;14.60;;;4.70;84.90;;;;;;2088959;28;20033;-70
2021/04/25 01:44:47;;;;;;;20.65;14.10;;;4.70;84.70;;;;;;2088838;28;20480;-69
2021/04/25 01:45:49;;;;;;;21.38;14.02;;;4.70;84.90;;;;;;2088695;28;20029;-68
2021/04/25 01:46:50;;;;;;;20.50;14.50;;;4.80;85.00;;;;;;2089104;28;20029;-72
2021/04/25 01:47:55;;;;;;;22.25;14.73;;;4.80;85.20;;;;;;2088575;28;20021;-70
2021/04/25 01:48:56;;;;;;;23.52;15.07;;;4.80;85.70;;;;;;2088540;28;20079;-69
2021/04/25 01:49:57;;;;;;;23.33;15.50;;;4.80;86.20;;;;;;2088833;28;20025;-69
2021/04/25 01:50:58;;;;;;;24.77;15.55;;;4.80;87.60;;;;;;2080227;28;20085;-71
2021/04/25 01:52:01;;;;;;;25.90;15.50;;;4.80;88.10;;;;;;2079985;28;20030;-73
2021/04/25 01:53:03;;;;;;;24.38;14.98;;;4.80;87.90;;;;;;2072201;28;20797;-72
2021/04/25 01:54:04;;;;;;;21.80;14.23;;;4.80;87.40;;;;;;2079992;28;20516;-73
2021/04/25 01:55:06;;;;;;;21.98;14.82;;;4.80;87.00;;;;;;2077376;28;20080;-71
2021/04/25 01:56:07;;;;;;;22.58;14.82;;;4.90;87.20;;;;;;2079640;28;20071;-69
2021/04/25 01:57:08;;;;;;;27.15;15.43;;;4.90;87.20;;;;;;2083737;28;20438;-70
2021/04/25 01:58:10;;;;;;;21.40;14.43;;;4.90;87.30;;;;;;2088880;28;20396;-69
2021/04/25 01:59:11;;;;;;;24.00;14.07;;;4.90;87.60;;;;;;2080076;28;20504;-72
2021/04/25 02:00:15;;;;;;;20.58;13.15;;;4.90;87.10;;;;;;2080038;28;20073;-73
2021/04/25 02:01:15;;;;;;;18.98;12.93;;;4.90;87.30;;;;;;2083986;28;20032;-68
2021/04/25 02:02:16;;;;;;;19.27;12.45;;;4.90;87.30;;;;;;2088862;28;20056;-70
2021/04/25 02:03:17;;;;;;;19.23;13.05;;;4.90;87.20;;;;;;2088111;28;20044;-70
2021/04/25 02:04:18;;;;;;;20.00;12.95;;;4.90;87.20;;;;;;2079889;28;20634;-72
2021/04/25 02:05:19;;;;;;;18.70;12.63;;;4.90;87.20;;;;;;2088281;28;20539;-71
2021/04/25 02:06:20;;;;;;;20.98;13.02;;;4.90;87.00;;;;;;2088496;28;20029;-71
2021/04/25 02:07:20;;;;;;;20.05;12.68;;;4.90;86.80;;;;;;2088259;28;20479;-71
2021/04/25 02:08:21;;;;;;;21.10;12.93;;;4.90;86.60;;;;;;2088210;28;20483;-72
2021/04/25 02:09:22;;;;;;;22.40;14.10;;;5.00;86.70;;;;;;2088807;28;20060;-70
2021/04/25 02:10:23;;;;;;;22.77;13.05;;;4.90;87.10;;;;;;2088281;28;20037;-73
2021/04/25 02:11:24;;;;;;;20.83;13.85;;;4.90;86.80;;;;;;2080311;28;20021;-72
2021/04/25 02:12:25;;;;;;;22.55;13.73;;;4.90;87.00;;;;;;2088245;28;20036;-72
2021/04/25 02:13:27;;;;;;;20.25;13.75;;;4.90;86.90;;;;;;2088879;28;20075;-68
2021/04/25 02:14:28;;;;;;;21.55;14.48;;;4.90;87.10;;;;;;2080310;28;20018;-69
2021/04/25 02:15:29;;;;;;;23.10;14.38;;;4.90;87.20;;;;;;2080030;28;20507;-69
2021/04/25 02:16:31;;;;;;;23.25;14.32;;;4.90;87.00;;;;;;2079757;28;20033;-70
2021/04/25 02:17:31;;;;;;;22.58;14.52;;;4.90;87.00;;;;;;2088938;28;20044;-71
2021/04/25 02:18:32;;;;;;;24.17;14.65;;;4.90;87.20;;;;;;2088207;28;20110;-71
2021/04/25 02:19:33;;;;;;;24.90;15.30;;;4.90;87.50;;;;;;2079959;28;20124;-71
2021/04/25 02:20:35;;;;;;;24.80;15.25;;;4.90;87.70;;;;;;2079922;28;20037;-71
2021/04/25 02:21:37;;;;;;;25.40;15.57;;;4.90;87.70;;;;;;2081694;28;20048;-71
2021/04/25 02:22:38;;;;;;;25.63;14.85;;;4.90;87.80;;;;;;2086957;28;20079;-70
2021/04/25 02:23:39;;;;;;;22.02;14.45;;;4.90;87.80;;;;;;2088585;28;20037;-69
2021/04/25 02:24:40;;;;;;;24.27;15.30;;;4.90;87.80;;;;;;2088279;28;20142;-72
2021/04/25 02:25:41;;;;;;;21.02;14.50;;;4.90;87.90;;;;;;2089010;28;20029;-71
2021/04/25 02:26:42;;;;;;;21.10;13.95;;;4.90;88.10;;;;;;2087957;28;20020;-68
2021/04/25 02:27:44;;;;;;;20.90;14.00;;;4.90;88.10;;;;;;2088241;28;20029;-69
2021/04/25 02:28:44;;;;;;;22.40;14.10;;;4.90;88.00;;;;;;2088915;28;20503;-70
2021/04/25 02:29:45;;;;;;;23.27;14.95;;;4.90;88.10;;;;;;2089002;28;20028;-69
2021/04/25 02:30:46;;;;;;;23.15;14.63;;;5.00;88.00;;;;;;2088855;28;20029;-70
2021/04/25 02:31:47;;;;;;;20.95;13.77;;;4.90;87.90;;;;;;2088846;28;20075;-68
2021/04/25 02:32:48;;;;;;;21.20;14.15;;;5.00;87.70;;;;;;2089080;28;20036;-73
2021/04/25 02:33:49;;;;;;;22.15;14.18;;;5.00;87.70;;;;;;2090220;28;20037;-71
2021/04/25 02:34:50;;;;;;;21.65;14.10;;;5.00;87.90;;;;;;2089678;28;20025;-71
2021/04/25 02:35:51;;;;;;;22.90;14.23;;;5.00;88.40;;;;;;2080618;28;20034;-71
2021/04/25 02:36:51;;;;;;;20.95;13.52;;;5.00;88.40;;;;;;2088671;28;20475;-70
2021/04/25 02:37:53;;;;;;;21.35;13.50;;;5.00;88.50;;;;;;2088274;28;20017;-70
2021/04/25 02:38:54;;;;;;;20.25;14.15;;;5.00;88.20;;;;;;2071639;28;20028;-70
2021/04/25 02:39:54;;;;;;;19.92;13.60;;;5.00;88.00;;;;;;2071725;28;20030;-68
2021/04/25 02:40:55;;;;;;;21.73;13.60;;;5.10;87.90;;;;;;2087969;28;20615;-68
2021/04/25 02:41:56;;;;;;;19.63;13.82;;;5.10;87.70;;;;;;2088649;28;20099;-68
2021/04/25 02:42:58;;;;;;;20.17;13.75;;;5.10;87.80;;;;;;2088587;28;20434;-70
2021/04/25 02:43:59;;;;;;;21.55;13.30;;;5.10;87.80;;;;;;2088370;28;20503;-68
2021/04/25 02:44:59;;;;;;;20.73;13.18;;;5.10;88.00;;;;;;2088456;28;20060;-68
2021/04/25 02:46:02;;;;;;;21.20;13.80;;;5.10;87.90;;;;;;2087623;28;20037;-68
2021/04/25 02:47:03;;;;;;;22.33;13.98;;;5.10;87.80;;;;;;2079681;28;20034;-69
2021/04/25 02:48:09;;;;;;;19.60;13.80;;;5.10;87.60;;;;;;2081544;28;20423;-68
2021/04/25 02:49:10;;;;;;;20.45;13.68;;;5.10;87.60;;;;;;2088523;28;20068;-68
2021/04/25 02:50:11;;;;;;;20.73;13.73;;;5.10;87.60;;;;;;2088583;28;20039;-68
2021/04/25 02:51:11;;;;;;;20.00;14.07;;;5.20;87.60;;;;;;2088692;28;20353;-68
2021/04/25 02:52:12;;;;;;;20.67;13.50;;;5.20;87.70;;;;;;2088391;28;20039;-68
2021/04/25 02:53:14;;;;;;;20.52;13.35;;;5.20;88.60;;;;;;2079590;28;20172;-68
2021/04/25 02:54:15;;;;;;;20.95;13.95;;;5.20;87.80;;;;;;2079606;28;20017;-68
2021/04/25 02:55:16;;;;;;;22.23;14.15;;;5.20;87.80;;;;;;2084777;28;20029;-68
2021/04/25 02:56:17;;;;;;;19.83;13.80;;;5.20;87.80;;;;;;2082716;28;20049;-68
2021/04/25 02:57:17;;;;;;;19.52;13.65;;;5.20;87.80;;;;;;2088019;28;20028;-69
2021/04/25 02:58:18;;;;;;;21.95;13.93;;;5.20;87.70;;;;;;2087932;28;20021;-69
2021/04/25 02:59:19;;;;;;;19.75;13.20;;;5.20;87.60;;;;;;2087953;28;20037;-71
2021/04/25 03:00:23;;;;;;;19.38;12.93;;;5.20;87.70;;;;;;2088010;28;20079;-68
2021/04/25 03:01:24;;;;;;;17.60;12.60;;;5.20;87.50;;;;;;2087921;28;20029;-71
2021/04/25 03:02:24;;;;;;;19.88;13.27;;;5.20;87.50;;;;;;2079785;28;20860;-70
2021/04/25 03:03:25;;;;;;;19.02;12.90;;;5.20;87.50;;;;;;2088076;28;20040;-70
2021/04/25 03:04:26;;;;;;;20.42;13.02;;;5.20;87.40;;;;;;2088349;28;20052;-72
2021/04/25 03:05:27;;;;;;;20.48;13.45;;;5.20;87.40;;;;;;2088477;28;20060;-71
2021/04/25 03:06:27;;;;;;;19.17;13.32;;;5.20;87.40;;;;;;2087560;28;20032;-70
2021/04/25 03:07:28;;;;;;;19.60;13.45;;;5.20;87.50;;;;;;2087965;28;20025;-70
2021/04/25 03:08:30;;;;;;;21.55;12.90;;;5.30;87.70;;;;;;2088568;28;20800;-71
2021/04/25 03:09:30;;;;;;;18.00;12.98;;;5.20;87.70;;;;;;2087838;28;20021;-70
2021/04/25 03:10:31;;;;;;;18.58;12.75;;;5.20;87.70;;;;;;2087808;28;20040;-71
2021/04/25 03:11:32;;;;;;;18.90;12.55;;;5.20;87.00;;;;;;2088518;28;20033;-69
2021/04/25 03:12:33;;;;;;;20.48;12.68;;;5.20;86.20;;;;;;2088250;28;20185;-69
2021/04/25 03:13:34;;;;;;;19.77;12.80;;;5.20;85.50;;;;;;2073180;28;20026;-70
2021/04/25 03:14:35;;;;;;;24.38;12.98;;;5.20;85.30;;;;;;2081372;28;20053;-69
2021/04/25 03:15:35;;;;;;;20.05;13.07;;;5.20;85.20;;;;;;2095289;28;20045;-70
2021/04/25 03:16:36;;;;;;;18.17;13.07;;;5.30;85.50;;;;;;2097368;28;20020;-70
2021/04/25 03:17:37;;;;;;;19.38;13.32;;;5.30;85.60;;;;;;2087619;28;20040;-69
2021/04/25 03:18:38;;;;;;;21.20;13.52;;;5.30;85.80;;;;;;2090054;28;20025;-68
2021/04/25 03:19:38;;;;;;;19.67;13.25;;;5.30;85.80;;;;;;2084013;28;20524;-70
2021/04/25 03:20:39;;;;;;;20.67;13.48;;;5.30;86.00;;;;;;2088021;28;20112;-69
2021/04/25 03:21:40;;;;;;;23.02;13.70;;;5.30;86.20;;;;;;2090170;28;20483;-69
2021/04/25 03:22:41;;;;;;;19.08;12.77;;;5.30;86.00;;;;;;2090265;28;20060;-70
2021/04/25 03:23:42;;;;;;;19.73;12.82;;;5.30;86.00;;;;;;2089465;28;20537;-71
2021/04/25 03:24:42;;;;;;;18.73;12.88;;;5.30;85.90;;;;;;2088929;28;20039;-68
2021/04/25 03:25:43;;;;;;;19.27;12.90;;;5.30;85.80;;;;;;2090082;28;20029;-69
2021/04/25 03:26:44;;;;;;;17.35;12.35;;;5.30;85.80;;;;;;2089126;28;20403;-69
2021/04/25 03:27:44;;;;;;;18.90;13.00;;;5.20;85.40;;;;;;2089311;28;20082;-68
2021/04/25 03:28:45;;;;;;;17.65;12.98;;;5.30;85.40;;;;;;2089399;28;20037;-69
2021/04/25 03:29:46;;;;;;;17.95;12.40;;;5.30;85.30;;;;;;2089636;28;20029;-69
2021/04/25 03:30:47;;;;;;;19.17;12.45;;;5.20;85.20;;;;;;2090081;28;20029;-69
2021/04/25 03:31:47;;;;;;;18.30;12.40;;;5.20;85.40;;;;;;2089440;28;20128;-71
2021/04/25 03:32:48;;;;;;;17.88;12.25;;;5.20;85.60;;;;;;2089415;28;20058;-69
2021/04/25 03:33:49;;;;;;;17.52;12.27;;;5.30;85.70;;;;;;2081340;28;20034;-68
2021/04/25 03:34:49;;;;;;;17.52;12.07;;;5.30;85.40;;;;;;2081331;28;20022;-71
2021/04/25 03:35:50;;;;;;;17.85;11.95;;;5.30;85.20;;;;;;2089130;28;20052;-69
2021/04/25 03:36:51;;;;;;;21.63;12.85;;;5.30;85.00;;;;;;2090023;28;20056;-67
2021/04/25 03:37:51;;;;;;;21.83;13.20;;;5.30;84.90;;;;;;2081311;28;20022;-67
2021/04/25 03:38:52;;;;;;;20.33;12.90;;;5.30;84.60;;;;;;2072914;28;20453;-68
2021/04/25 03:39:53;;;;;;;22.02;13.43;;;5.30;84.40;;;;;;2089057;28;20025;-68
2021/04/25 03:40:56;;;;;;;21.90;13.15;;;5.30;83.60;;;;;;2082208;28;20041;-68
2021/04/25 03:41:57;;;;;;;22.85;13.65;;;5.30;83.60;;;;;;2097831;28;20471;-67
2021/04/25 03:42:58;;;;;;;19.60;13.38;;;5.30;83.50;;;;;;2089342;28;20037;-69
2021/04/25 03:43:58;;;;;;;22.98;13.55;;;5.30;83.50;;;;;;2089498;28;20032;-69
2021/04/25 03:44:59;;;;;;;20.63;13.45;;;5.30;83.20;;;;;;2089477;28;20484;-67
2021/04/25 03:46:00;;;;;;;20.77;13.38;;;5.30;82.80;;;;;;2088674;28;20118;-68
2021/04/25 03:47:00;;;;;;;17.95;12.13;;;5.30;82.50;;;;;;2082418;28;20021;-70
2021/04/25 03:48:01;;;;;;;21.98;12.57;;;5.30;82.30;;;;;;2081767;28;20040;-70
2021/04/25 03:49:04;;;;;;;17.15;12.18;;;5.30;82.20;;;;;;2090414;28;20041;-71
2021/04/25 03:50:05;;;;;;;17.42;12.70;;;5.30;82.20;;;;;;2091416;28;20025;-71
2021/04/25 03:51:05;;;;;;;21.02;12.82;;;5.30;82.40;;;;;;2091551;28;20075;-71
2021/04/25 03:52:07;;;;;;;17.98;11.60;;;5.30;82.40;;;;;;2092188;28;20037;-71
2021/04/25 03:53:08;;;;;;;20.00;12.60;;;5.30;82.20;;;;;;2092326;28;20032;-70
2021/04/25 03:54:09;;;;;;;19.23;12.40;;;5.30;82.10;;;;;;2092124;28;20049;-70
2021/04/25 03:55:10;;;;;;;14.57;11.13;;;5.30;82.20;;;;;;2092051;28;20789;-72
2021/04/25 03:56:11;;;;;;;17.65;11.70;;;5.30;82.30;;;;;;2092053;28;20523;-71
2021/04/25 03:57:12;;;;;;;17.45;11.90;;;5.30;82.20;;;;;;2091761;28;20033;-70
2021/04/25 03:58:12;;;;;;;18.38;12.13;;;5.30;82.20;;;;;;2092218;28;20554;-68
2021/04/25 03:59:13;;;;;;;18.45;11.85;;;5.30;82.40;;;;;;2091744;28;20036;-69
2021/04/25 04:00:15;;;;;;;17.65;12.05;;;5.30;82.20;;;;;;2091559;28;20029;-73
2021/04/25 04:01:17;;;;;;;17.70;11.57;;;5.30;82.20;;;;;;2092003;28;20191;-71
2021/04/25 04:02:17;;;;;;;17.80;11.90;;;5.30;82.20;;;;;;2091266;28;20108;-70
2021/04/25 04:03:18;;;;;;;15.88;11.65;;;5.30;82.40;;;;;;2088246;28;20392;-70
2021/04/25 04:04:18;;;;;;;17.08;11.63;;;5.30;82.60;;;;;;2082574;28;20021;-70
2021/04/25 04:05:19;;;;;;;20.70;13.20;;;5.30;82.60;;;;;;2089181;28;20427;-71
2021/04/25 04:06:21;;;;;;;19.77;12.30;;;5.30;82.60;;;;;;2089493;28;20033;-71
2021/04/25 04:07:21;;;;;;;19.30;12.30;;;5.30;82.80;;;;;;2090826;28;20555;-70
2021/04/25 04:08:22;;;;;;;19.08;11.95;;;5.30;82.80;;;;;;2090858;28;20040;-69
2021/04/25 04:09:23;;;;;;;17.33;12.20;;;5.30;82.80;;;;;;2091020;28;20089;-67
2021/04/25 04:10:23;;;;;;;17.73;12.50;;;5.40;83.10;;;;;;2090759;28;20112;-69
2021/04/25 04:11:24;;;;;;;18.63;12.18;;;5.40;83.00;;;;;;2091198;28;20029;-69
2021/04/25 04:12:25;;;;;;;17.05;11.88;;;5.40;83.20;;;;;;2091137;28;20049;-68
2021/04/25 04:13:25;;;;;;;19.40;12.50;;;5.40;83.40;;;;;;2090845;28;20383;-68
2021/04/25 04:14:26;;;;;;;17.88;12.20;;;5.40;83.70;;;;;;2089298;28;20024;-68
2021/04/25 04:15:27;;;;;;;19.45;11.88;;;5.40;83.40;;;;;;2089284;28;20578;-68
2021/04/25 04:16:27;;;;;;;18.15;12.55;;;5.50;83.20;;;;;;2089607;28;20158;-68
2021/04/25 04:17:28;;;;;;;22.15;13.38;;;5.50;82.90;;;;;;2089983;28;20044;-68
2021/04/25 04:18:29;;;;;;;20.92;13.30;;;5.40;83.10;;;;;;2090110;28;20463;-68
2021/04/25 04:19:30;;;;;;;19.95;12.95;;;5.40;83.40;;;;;;2090221;28;20430;-68
2021/04/25 04:20:30;;;;;;;20.35;12.90;;;5.40;83.70;;;;;;2089629;28;20064;-69
2021/04/25 04:21:32;;;;;;;22.67;13.57;;;5.40;83.80;;;;;;2089579;28;20021;-69
2021/04/25 04:22:33;;;;;;;21.05;12.63;;;5.40;84.10;;;;;;2089544;28;20032;-70
2021/04/25 04:23:34;;;;;;;18.08;12.68;;;5.40;84.30;;;;;;2089574;28;20033;-71
2021/04/25 04:24:34;;;;;;;18.02;12.45;;;5.40;84.30;;;;;;2087798;28;20033;-73
2021/04/25 04:25:36;;;;;;;19.50;12.73;;;5.50;84.60;;;;;;2080727;28;20811;-71
2021/04/25 04:26:36;;;;;;;18.85;12.35;;;5.40;84.60;;;;;;2088855;28;20031;-70
2021/04/25 04:27:37;;;;;;;17.40;12.55;;;5.50;84.70;;;;;;2089629;28;20071;-70
2021/04/25 04:28:39;;;;;;;20.08;12.70;;;5.50;84.60;;;;;;2088910;28;20076;-71
2021/04/25 04:29:39;;;;;;;17.05;11.88;;;5.50;84.80;;;;;;2072535;28;20026;-71
2021/04/25 04:30:40;;;;;;;19.05;12.23;;;5.50;84.80;;;;;;2080730;28;20108;-70
2021/04/25 04:31:41;;;;;;;20.38;12.65;;;5.60;84.90;;;;;;2088990;28;20139;-71
2021/04/25 04:32:41;;;;;;;16.60;11.90;;;5.60;84.60;;;;;;2088812;28;20029;-70
2021/04/25 04:33:42;;;;;;;17.63;11.95;;;5.50;84.60;;;;;;2080649;28;20427;-69
2021/04/25 04:34:43;;;;;;;17.95;12.43;;;5.60;84.90;;;;;;2088832;28;21079;-71
2021/04/25 04:35:44;;;;;;;18.17;12.43;;;5.60;84.60;;;;;;2088662;28;20111;-70
2021/04/25 04:36:44;;;;;;;18.02;12.43;;;5.60;84.50;;;;;;2088436;28;20372;-70
2021/04/25 04:37:45;;;;;;;18.23;11.90;;;5.60;84.20;;;;;;2089333;28;20040;-69
2021/04/25 04:38:46;;;;;;;18.90;12.27;;;5.60;83.90;;;;;;2089426;28;20067;-70
2021/04/25 04:39:46;;;;;;;20.23;12.88;;;5.60;83.80;;;;;;2089593;28;20037;-70
2021/04/25 04:40:47;;;;;;;19.55;12.75;;;5.60;84.10;;;;;;2089407;28;20108;-70
2021/04/25 04:41:49;;;;;;;18.52;12.52;;;5.60;84.40;;;;;;2088816;28;20543;-70
2021/04/25 04:42:50;;;;;;;18.77;13.05;;;5.60;84.50;;;;;;2088865;28;20450;-70
2021/04/25 04:43:51;;;;;;;18.30;12.25;;;5.70;84.50;;;;;;2089365;28;20094;-69
2021/04/25 04:44:51;;;;;;;19.13;12.55;;;5.70;84.40;;;;;;2089221;28;20060;-68
2021/04/25 04:45:52;;;;;;;18.13;12.18;;;5.70;84.50;;;;;;2088999;28;20033;-70
2021/04/25 04:46:53;;;;;;;20.88;12.90;;;5.70;84.30;;;;;;2089475;28;20029;-68
2021/04/25 04:47:54;;;;;;;20.33;12.27;;;5.70;84.30;;;;;;2088844;28;20041;-68
2021/04/25 04:48:54;;;;;;;19.15;12.60;;;5.70;84.30;;;;;;2088872;28;20024;-70
2021/04/25 04:49:55;;;;;;;18.42;12.07;;;5.70;84.20;;;;;;2080472;28;20377;-69
2021/04/25 04:50:56;;;;;;;19.20;12.60;;;5.80;84.20;;;;;;2088743;28;20415;-69
2021/04/25 04:51:56;;;;;;;21.27;12.35;;;5.80;83.90;;;;;;2080477;28;20040;-69
2021/04/25 04:52:57;;;;;;;21.13;12.30;;;5.80;83.50;;;;;;2072562;28;20048;-69
2021/04/25 04:53:58;;;;;;;17.90;12.32;;;5.80;82.80;;;;;;2080627;28;20108;-69
2021/04/25 04:54:58;;;;;;;18.15;11.93;;;5.80;82.20;;;;;;2079787;28;20025;-70
2021/04/25 04:55:59;;;;;;;17.52;11.57;;;5.80;82.20;;;;;;2080018;28;20024;-70
2021/04/25 04:57:00;;;;;;;19.52;12.30;;;5.80;82.10;;;;;;2072215;28;20491;-69
2021/04/25 04:58:01;;;;;;;18.83;11.82;;;5.80;81.80;;;;;;2088623;28;20430;-70
2021/04/25 04:59:01;;;;;;;18.13;12.02;;;5.90;81.40;;;;;;2089232;28;20484;-71
2021/04/25 05:00:04;;;;;;;18.58;12.05;;;5.90;81.50;;;;;;2088577;28;20039;-70
2021/04/25 05:01:05;;;;;;;16.92;11.57;;;5.90;81.20;;;;;;2088687;28;20033;-71
2021/04/25 05:02:06;;;;;;;17.75;11.73;;;5.90;80.90;;;;;;2089242;28;20100;-70
2021/04/25 05:03:07;;;;;;;16.77;11.88;;;6.00;80.80;;;;;;2089274;28;20438;-70
2021/04/25 05:04:07;;;;;;;16.02;11.43;;;6.00;80.10;;;;;;2088607;28;20049;-71
2021/04/25 05:05:08;;;;;;;19.73;12.05;;;6.00;80.00;;;;;;2088556;28;20029;-71
2021/04/25 05:06:09;;;;;;;19.83;12.13;;;6.00;80.20;;;;;;2088117;28;20044;-70
2021/04/25 05:07:11;;;;;;;20.80;12.70;;;6.00;80.10;;;;;;2088836;28;20024;-71
2021/04/25 05:08:11;;;;;;;18.42;12.55;;;6.00;80.30;;;;;;2089224;28;20017;-71
2021/04/25 05:09:12;;;;;;;19.42;12.70;;;6.00;80.50;;;;;;2089225;28;20093;-70
2021/04/25 05:10:13;;;;;;;16.65;11.75;;;6.00;80.20;;;;;;2089100;28;20112;-71
2021/04/25 05:11:13;;;;;;;18.38;11.90;;;6.00;80.10;;;;;;2089143;28;20036;-71
2021/04/25 05:12:14;;;;;;;20.13;12.50;;;6.10;80.10;;;;;;2089184;28;20028;-71
2021/04/25 05:13:15;;;;;;;19.30;13.18;;;6.10;79.60;;;;;;2089233;28;20036;-72